Terminal Aerodrome Forecast
Issued by NWS Spokane, WA

Home | Current Version | Previous Version | Text Only | Print | Product List | Glossary On
Versions: 1 2 3 4 5 6 7 8 9 10 11 12 13 14 15 16 17 18 19 20 21 22 23 24 25 26 27 28 29 30 31 32 33
000
FTUS46 KOTX 231903 AAA
TAFGEG
TAF AMD
KGEG 231903Z 2319/2418 20012G20KT P6SM VCSH SCT025 BKN030 BKN070
     FM240100 21012G18KT P6SM -SHRA BKN035 BKN080 OVC120
     FM240800 20011KT P6SM BKN040 OVC050
     FM241500 19012KT P6SM VCSH OVC025=

USA.gov is the U.S. government's official web portal to all federal, state and local government web resources and services.